Time;durP1;ratioP1;P1;durP2;ratioP2;P2;SDS_P1;SDS_P2;PMS_P1;PMS_P2;Temp;Humidity;BMP_temperature;BMP_pressure;BME280_temperature;BME280_humidity;BME280_pressure;Samples;Min_cycle;Max_cycle;Signal;HPM_P1;HPM_P2
2022/10/28 00:01:02;;;;;;;21.53;7.67;;;;;;;;;;5095096;28;20222;-80
2022/10/28 00:03:29;;;;;;;21.77;7.37;;;;;;;;;;5106376;28;20276;-80
2022/10/28 00:06:01;;;;;;;19.17;8.17;;;;;;;;;;5109428;28;20222;-80
2022/10/28 00:08:28;;;;;;;22.53;8.10;;;;;;;;;;5103817;28;20625;-81
2022/10/28 00:11:01;;;;;;;20.73;8.00;;;;;;;;;;5110442;28;20229;-80
2022/10/28 00:13:29;;;;;;;20.33;7.00;;;;;;;;;;5099290;28;20254;-80
2022/10/28 00:16:03;;;;;;;23.20;7.63;;;;;;;;;;5109330;28;20276;-80
2022/10/28 00:18:30;;;;;;;16.20;7.47;;;;;;;;;;5108405;28;20284;-80
2022/10/28 00:21:00;;;;;;;15.47;7.17;;;;;;;;;;5103905;28;20282;-80
2022/10/28 00:23:27;;;;;;;22.13;7.47;;;;;;;;;;5105822;28;20768;-80
2022/10/28 00:25:54;;;;;;;25.60;7.67;;;;;;;;;;5109608;28;20285;-80
2022/10/28 00:28:21;;;;;;;21.23;7.70;;;;;;;;;;5111080;28;20241;-80
2022/10/28 00:30:49;;;;;;;20.70;7.27;;;;;;;;;;5094994;28;20301;-80
2022/10/28 00:33:17;;;;;;;20.47;7.23;;;;;;;;;;5099533;28;20297;-81
2022/10/28 00:35:44;;;;;;;19.53;6.70;;;;;;;;;;5109092;28;20288;-80
2022/10/28 00:38:11;;;;;;;23.13;6.77;;;;;;;;;;5100047;28;20234;-81
2022/10/28 00:40:39;;;;;;;19.43;6.60;;;;;;;;;;5101216;28;20645;-81
2022/10/28 00:43:06;;;;;;;16.60;6.57;;;;;;;;;;5101405;28;20229;-80
2022/10/28 00:45:33;;;;;;;19.90;7.27;;;;;;;;;;5107428;28;20261;-80
2022/10/28 00:48:01;;;;;;;19.87;6.23;;;;;;;;;;5113542;28;20198;-80
2022/10/28 00:50:39;;;;;;;20.53;6.20;;;;;;;;;;5094451;28;20230;-80
2022/10/28 00:53:09;;;;;;;21.67;6.03;;;;;;;;;;5096213;28;20313;-80
2022/10/28 00:55:37;;;;;;;24.50;6.00;;;;;;;;;;5113196;28;20286;-80
2022/10/28 00:58:06;;;;;;;16.23;5.60;;;;;;;;;;5109024;28;20637;-80
2022/10/28 01:00:33;;;;;;;18.07;5.07;;;;;;;;;;5099801;28;20631;-81
2022/10/28 01:03:00;;;;;;;19.90;5.70;;;;;;;;;;5094367;28;20233;-80
2022/10/28 01:05:29;;;;;;;18.13;5.90;;;;;;;;;;5106954;28;20225;-81
2022/10/28 01:07:59;;;;;;;14.07;5.97;;;;;;;;;;5097604;28;20198;-81
2022/10/28 01:10:30;;;;;;;17.42;5.30;;;;;;;;;;5099961;28;20631;-81
2022/10/28 01:13:01;;;;;;;19.30;5.93;;;;;;;;;;5103168;28;20316;-81
2022/10/28 01:15:34;;;;;;;20.75;6.35;;;;;;;;;;5100416;28;20228;-81
2022/10/28 01:18:05;;;;;;;15.27;5.95;;;;;;;;;;5113543;28;20229;-81
2022/10/28 01:20:43;;;;;;;16.47;5.60;;;;;;;;;;5112897;28;20284;-81
2022/10/28 01:23:14;;;;;;;19.67;5.78;;;;;;;;;;5094506;28;20276;-80
2022/10/28 01:25:57;;;;;;;23.83;6.90;;;;;;;;;;5104929;28;20280;-80
2022/10/28 01:28:41;;;;;;;21.87;6.07;;;;;;;;;;5102645;28;20229;-81
2022/10/28 01:31:21;;;;;;;22.40;6.63;;;;;;;;;;5092938;28;20233;-80
2022/10/28 01:33:51;;;;;;;13.47;6.30;;;;;;;;;;5099574;28;20308;-80
2022/10/28 01:36:20;;;;;;;17.93;6.53;;;;;;;;;;5106695;28;20194;-81
2022/10/28 01:38:54;;;;;;;18.00;6.70;;;;;;;;;;5101254;28;20241;-80
2022/10/28 01:41:27;;;;;;;18.00;7.07;;;;;;;;;;5103311;28;20190;-82
2022/10/28 01:43:57;;;;;;;14.70;7.80;;;;;;;;;;5092532;28;20282;-80
2022/10/28 01:46:28;;;;;;;14.57;6.70;;;;;;;;;;5093281;28;20294;-81
2022/10/28 01:48:57;;;;;;;16.75;6.70;;;;;;;;;;5093075;28;20280;-80
2022/10/28 01:51:27;;;;;;;14.13;6.88;;;;;;;;;;5093130;28;20745;-80
2022/10/28 01:53:56;;;;;;;20.83;6.93;;;;;;;;;;5091987;28;20297;-80
2022/10/28 01:56:25;;;;;;;17.35;6.90;;;;;;;;;;5093027;28;20290;-80
2022/10/28 01:58:54;;;;;;;12.57;6.20;;;;;;;;;;5091395;28;20230;-80
2022/10/28 02:01:23;;;;;;;16.77;6.90;;;;;;;;;;5102718;28;20632;-80
2022/10/28 02:03:52;;;;;;;16.75;6.32;;;;;;;;;;5100225;28;20198;-80
2022/10/28 02:06:20;;;;;;;12.68;6.10;;;;;;;;;;5095270;28;20198;-80
2022/10/28 02:08:55;;;;;;;13.63;6.03;;;;;;;;;;5095976;28;20277;-80
2022/10/28 02:11:52;;;;;;;16.13;6.40;;;;;;;;;;5108720;28;20225;-80
2022/10/28 02:14:27;;;;;;;11.60;6.60;;;;;;;;;;5091508;28;20253;-80
2022/10/28 02:16:57;;;;;;;14.43;5.88;;;;;;;;;;5108406;28;20284;-80
2022/10/28 02:19:32;;;;;;;17.02;6.70;;;;;;;;;;5112742;28;20292;-80
2022/10/28 02:22:05;;;;;;;16.20;6.40;;;;;;;;;;5103938;28;20285;-80
2022/10/28 02:24:38;;;;;;;13.32;5.97;;;;;;;;;;5091595;28;20290;-81
2022/10/28 02:27:09;;;;;;;14.93;6.35;;;;;;;;;;5091903;28;20221;-80
2022/10/28 02:29:39;;;;;;;15.70;6.18;;;;;;;;;;5092503;28;20305;-81
2022/10/28 02:32:07;;;;;;;14.93;6.07;;;;;;;;;;5091770;28;20233;-80
2022/10/28 02:34:38;;;;;;;18.00;6.43;;;;;;;;;;5104759;28;20257;-81
2022/10/28 02:37:09;;;;;;;17.15;6.47;;;;;;;;;;5104386;28;20232;-80
2022/10/28 02:39:39;;;;;;;13.00;5.75;;;;;;;;;;5092891;28;20697;-81
2022/10/28 02:42:07;;;;;;;11.85;6.03;;;;;;;;;;5103546;28;20288;-81
2022/10/28 02:44:36;;;;;;;14.45;6.20;;;;;;;;;;5096926;28;20237;-81
2022/10/28 02:47:05;;;;;;;14.38;6.25;;;;;;;;;;5104773;28;20281;-81
2022/10/28 02:49:34;;;;;;;16.75;6.20;;;;;;;;;;5096704;28;20282;-81
2022/10/28 02:52:03;;;;;;;14.10;6.72;;;;;;;;;;5107218;28;20281;-80
2022/10/28 02:54:33;;;;;;;16.05;6.35;;;;;;;;;;5109522;28;20301;-81
2022/10/28 02:57:03;;;;;;;12.68;6.00;;;;;;;;;;5108716;28;20288;-81
2022/10/28 02:59:30;;;;;;;13.98;5.97;;;;;;;;;;5110210;28;20229;-81
2022/10/28 03:01:58;;;;;;;12.90;5.63;;;;;;;;;;5109000;28;20273;-81
2022/10/28 03:04:25;;;;;;;15.10;6.22;;;;;;;;;;5098749;28;20281;-80
2022/10/28 03:06:52;;;;;;;12.90;6.03;;;;;;;;;;5104206;28;20292;-81
2022/10/28 03:09:21;;;;;;;12.10;5.50;;;;;;;;;;5105402;28;20194;-81
2022/10/28 03:11:48;;;;;;;15.63;6.25;;;;;;;;;;5103552;28;20661;-81
2022/10/28 03:14:15;;;;;;;11.15;5.63;;;;;;;;;;5103899;28;20220;-81
2022/10/28 03:16:43;;;;;;;15.43;5.65;;;;;;;;;;5094059;28;20289;-81
2022/10/28 03:19:10;;;;;;;15.27;5.72;;;;;;;;;;5095980;28;20233;-81
2022/10/28 03:21:37;;;;;;;12.05;5.68;;;;;;;;;;5108935;28;20244;-80
2022/10/28 03:24:04;;;;;;;12.18;5.90;;;;;;;;;;5099479;28;20280;-81
2022/10/28 03:26:33;;;;;;;12.38;6.25;;;;;;;;;;5103376;28;20205;-81
2022/10/28 03:29:00;;;;;;;14.40;6.35;;;;;;;;;;5100794;28;20304;-81
2022/10/28 03:31:27;;;;;;;14.20;6.28;;;;;;;;;;5108071;28;20208;-80
2022/10/28 03:33:54;;;;;;;17.70;6.93;;;;;;;;;;5100014;28;20306;-81
2022/10/28 03:36:22;;;;;;;13.40;6.85;;;;;;;;;;5102074;28;20236;-81
2022/10/28 03:38:49;;;;;;;15.18;6.50;;;;;;;;;;5097877;28;20713;-81
2022/10/28 03:41:16;;;;;;;16.50;6.68;;;;;;;;;;5103079;28;20225;-80
2022/10/28 03:43:45;;;;;;;16.88;7.13;;;;;;;;;;5099246;28;20276;-81
2022/10/28 03:46:12;;;;;;;14.43;6.78;;;;;;;;;;5092896;28;20230;-81
2022/10/28 03:48:39;;;;;;;24.33;7.13;;;;;;;;;;5099504;28;20226;-81
2022/10/28 03:51:06;;;;;;;17.85;7.13;;;;;;;;;;5107445;28;20288;-81
2022/10/28 03:53:33;;;;;;;15.77;6.78;;;;;;;;;;5104008;28;20281;-80
2022/10/28 03:56:01;;;;;;;20.73;7.00;;;;;;;;;;5101268;28;20289;-81
2022/10/28 03:58:28;;;;;;;13.43;6.80;;;;;;;;;;5113654;28;20221;-80
2022/10/28 04:00:57;;;;;;;16.00;7.60;;;;;;;;;;5095703;28;20289;-80
2022/10/28 04:03:26;;;;;;;12.20;6.70;;;;;;;;;;5095640;28;20234;-80
2022/10/28 04:05:53;;;;;;;19.75;8.23;;;;;;;;;;5102817;28;21073;-81
2022/10/28 04:08:21;;;;;;;14.80;6.93;;;;;;;;;;5095691;28;20230;-81
2022/10/28 04:10:49;;;;;;;18.92;7.45;;;;;;;;;;5098534;28;20229;-80
2022/10/28 04:13:16;;;;;;;21.45;7.45;;;;;;;;;;5101572;28;20318;-81
2022/10/28 04:15:44;;;;;;;16.40;7.37;;;;;;;;;;5106459;28;20214;-80
2022/10/28 04:18:12;;;;;;;15.73;7.43;;;;;;;;;;5113729;28;20233;-80
2022/10/28 04:20:40;;;;;;;16.17;7.10;;;;;;;;;;5111601;28;20285;-81
2022/10/28 04:23:07;;;;;;;14.17;7.40;;;;;;;;;;5093731;28;20297;-82
2022/10/28 04:25:34;;;;;;;13.95;7.35;;;;;;;;;;5094468;28;20222;-81
2022/10/28 04:28:01;;;;;;;17.33;8.00;;;;;;;;;;5093461;28;20226;-81
2022/10/28 04:30:29;;;;;;;17.48;7.72;;;;;;;;;;5106094;28;20210;-80
2022/10/28 04:32:56;;;;;;;16.13;7.50;;;;;;;;;;5101260;28;20226;-80
2022/10/28 04:35:25;;;;;;;16.90;7.53;;;;;;;;;;5094313;28;20304;-80
2022/10/28 04:37:52;;;;;;;14.43;7.80;;;;;;;;;;5094903;28;20651;-80
2022/10/28 04:40:19;;;;;;;12.48;7.32;;;;;;;;;;5094100;28;20226;-80
2022/10/28 04:42:46;;;;;;;14.45;7.68;;;;;;;;;;5094837;28;20668;-81
2022/10/28 04:45:14;;;;;;;14.50;7.50;;;;;;;;;;5092901;28;20282;-81
2022/10/28 04:47:41;;;;;;;17.53;7.63;;;;;;;;;;5093872;28;20198;-80
2022/10/28 04:50:09;;;;;;;16.67;7.47;;;;;;;;;;5101897;28;20628;-80
2022/10/28 04:52:37;;;;;;;17.33;8.17;;;;;;;;;;5103381;28;20195;-81
2022/10/28 04:55:08;;;;;;;17.90;8.43;;;;;;;;;;5104412;28;20772;-81
2022/10/28 04:57:38;;;;;;;15.83;8.10;;;;;;;;;;5106356;28;20286;-81
2022/10/28 05:00:06;;;;;;;18.33;7.90;;;;;;;;;;5107892;28;20228;-80
2022/10/28 05:02:33;;;;;;;19.60;7.60;;;;;;;;;;5101475;28;20722;-80
2022/10/28 05:05:02;;;;;;;13.57;8.03;;;;;;;;;;5105954;28;20193;-80
2022/10/28 05:07:29;;;;;;;14.93;7.40;;;;;;;;;;5109572;28;20190;-81
2022/10/28 05:09:58;;;;;;;22.20;8.60;;;;;;;;;;5098818;28;20285;-81
2022/10/28 05:12:25;;;;;;;18.97;8.17;;;;;;;;;;5104887;28;20694;-81
2022/10/28 05:14:52;;;;;;;19.43;8.43;;;;;;;;;;5102231;28;20635;-81
2022/10/28 05:17:19;;;;;;;12.63;7.87;;;;;;;;;;5106278;28;20230;-81
2022/10/28 05:19:46;;;;;;;21.48;8.45;;;;;;;;;;5104263;28;20276;-81
2022/10/28 05:22:14;;;;;;;14.87;7.63;;;;;;;;;;5108542;28;20225;-81
2022/10/28 05:24:41;;;;;;;19.50;8.57;;;;;;;;;;5100542;28;20233;-81
2022/10/28 05:27:09;;;;;;;16.37;7.77;;;;;;;;;;5096697;28;20240;-81
2022/10/28 05:29:37;;;;;;;12.97;8.13;;;;;;;;;;5103797;28;20232;-80
2022/10/28 05:32:04;;;;;;;17.17;8.03;;;;;;;;;;5102089;28;20305;-80
2022/10/28 05:34:31;;;;;;;17.57;7.37;;;;;;;;;;5103979;28;20225;-81
2022/10/28 05:36:58;;;;;;;15.50;8.50;;;;;;;;;;5097691;28;20247;-80
2022/10/28 05:39:25;;;;;;;18.90;8.20;;;;;;;;;;5105977;28;20289;-81
2022/10/28 05:41:53;;;;;;;21.93;8.27;;;;;;;;;;5108153;28;20285;-81
2022/10/28 05:44:21;;;;;;;15.83;7.40;;;;;;;;;;5097867;28;20590;-80
2022/10/28 05:46:48;;;;;;;16.70;8.10;;;;;;;;;;5110866;28;20612;-81
2022/10/28 05:49:19;;;;;;;18.37;7.93;;;;;;;;;;5112156;28;20225;-81
2022/10/28 05:51:46;;;;;;;14.17;8.00;;;;;;;;;;5097375;28;20199;-81
2022/10/28 05:54:13;;;;;;;14.37;8.00;;;;;;;;;;5095305;28;20200;-78
2022/10/28 05:56:40;;;;;;;19.17;8.40;;;;;;;;;;5107037;28;20236;-77
2022/10/28 05:59:11;;;;;;;15.23;7.60;;;;;;;;;;5103378;28;20277;-78
2022/10/28 06:01:40;;;;;;;16.03;7.97;;;;;;;;;;5100229;28;20237;-78
2022/10/28 06:04:07;;;;;;;14.30;7.43;;;;;;;;;;5102711;28;20229;-78
2022/10/28 06:06:34;;;;;;;19.80;8.40;;;;;;;;;;5096794;28;20259;-78
2022/10/28 06:09:01;;;;;;;15.43;7.73;;;;;;;;;;5095797;28;20278;-78
2022/10/28 06:11:28;;;;;;;15.90;7.87;;;;;;;;;;5107120;28;20284;-78
2022/10/28 06:13:55;;;;;;;19.17;8.20;;;;;;;;;;5109801;28;20233;-77
2022/10/28 06:16:23;;;;;;;16.73;8.57;;;;;;;;;;5112405;28;20321;-78
2022/10/28 06:18:51;;;;;;;16.67;7.70;;;;;;;;;;5093142;28;20241;-78
2022/10/28 06:21:18;;;;;;;19.33;7.87;;;;;;;;;;5095862;28;20290;-78
2022/10/28 06:23:48;;;;;;;23.33;8.77;;;;;;;;;;5101514;28;20225;-78
2022/10/28 06:26:15;;;;;;;16.17;8.17;;;;;;;;;;5105640;28;20190;-77
2022/10/28 06:28:42;;;;;;;18.63;7.30;;;;;;;;;;5100797;28;20769;-78
2022/10/28 06:31:09;;;;;;;14.50;7.40;;;;;;;;;;5110670;28;20665;-78
2022/10/28 06:33:37;;;;;;;14.13;7.47;;;;;;;;;;5105524;28;20236;-78
2022/10/28 06:36:05;;;;;;;15.35;7.70;;;;;;;;;;5097675;28;20232;-78
2022/10/28 06:38:33;;;;;;;17.60;7.87;;;;;;;;;;5105166;28;20669;-78
2022/10/28 06:41:00;;;;;;;16.93;7.43;;;;;;;;;;5092534;28;20249;-78
2022/10/28 06:43:27;;;;;;;16.02;8.05;;;;;;;;;;5110027;28;20273;-78
2022/10/28 06:45:56;;;;;;;16.60;7.60;;;;;;;;;;5093667;28;20286;-78
2022/10/28 06:48:23;;;;;;;15.03;7.60;;;;;;;;;;5099072;28;20681;-76
2022/10/28 06:50:50;;;;;;;19.07;7.97;;;;;;;;;;5095524;28;20285;-77
2022/10/28 06:53:19;;;;;;;20.27;7.75;;;;;;;;;;5093390;28;20290;-76
2022/10/28 06:55:52;;;;;;;19.80;8.02;;;;;;;;;;5099656;28;20321;-75
2022/10/28 06:58:19;;;;;;;20.67;8.00;;;;;;;;;;5090246;28;20293;-76
2022/10/28 07:00:46;;;;;;;14.73;7.75;;;;;;;;;;5089537;28;20301;-76
2022/10/28 07:03:14;;;;;;;21.80;8.30;;;;;;;;;;5092894;28;20289;-76
2022/10/28 07:05:41;;;;;;;17.98;7.88;;;;;;;;;;5097868;28;20252;-76
2022/10/28 07:08:08;;;;;;;16.02;7.85;;;;;;;;;;5095836;28;20293;-76
2022/10/28 07:10:37;;;;;;;17.75;7.40;;;;;;;;;;5089888;28;20289;-76
2022/10/28 07:13:04;;;;;;;13.25;6.93;;;;;;;;;;5089537;28;20317;-76
2022/10/28 07:15:31;;;;;;;19.52;7.43;;;;;;;;;;5095640;28;20321;-76
2022/10/28 07:18:00;;;;;;;20.00;7.90;;;;;;;;;;5098976;28;20297;-75
2022/10/28 07:20:30;;;;;;;14.60;7.28;;;;;;;;;;5099805;28;20209;-76
2022/10/28 07:22:58;;;;;;;18.00;7.13;;;;;;;;;;5096244;28;20228;-76
2022/10/28 07:25:25;;;;;;;18.08;7.80;;;;;;;;;;5103877;28;20288;-75
2022/10/28 07:27:54;;;;;;;17.85;7.07;;;;;;;;;;5101433;28;20206;-76
2022/10/28 07:30:21;;;;;;;16.60;7.47;;;;;;;;;;5104422;28;20304;-75
2022/10/28 07:32:49;;;;;;;16.15;7.55;;;;;;;;;;5100992;28;20306;-75
2022/10/28 07:35:16;;;;;;;19.48;7.68;;;;;;;;;;5102134;28;20269;-76
2022/10/28 07:37:43;;;;;;;16.58;7.38;;;;;;;;;;5102154;28;20289;-76
2022/10/28 07:40:11;;;;;;;15.25;7.10;;;;;;;;;;5101779;28;20204;-76
2022/10/28 07:42:38;;;;;;;15.23;6.95;;;;;;;;;;5102504;28;20281;-76
2022/10/28 07:45:07;;;;;;;15.45;6.65;;;;;;;;;;5099642;28;20674;-77
2022/10/28 07:47:34;;;;;;;16.38;6.78;;;;;;;;;;5110785;28;20318;-76
2022/10/28 07:50:01;;;;;;;20.27;6.65;;;;;;;;;;5114273;28;20292;-76
2022/10/28 07:52:29;;;;;;;19.13;6.68;;;;;;;;;;5109181;28;20225;-76
2022/10/28 07:54:56;;;;;;;12.15;5.80;;;;;;;;;;5109529;28;20384;-76
2022/10/28 07:57:23;;;;;;;13.63;5.93;;;;;;;;;;5108284;28;20201;-77
2022/10/28 07:59:50;;;;;;;13.60;6.18;;;;;;;;;;5097537;28;20298;-77
2022/10/28 08:02:20;;;;;;;14.00;5.65;;;;;;;;;;5107246;28;20233;-77
2022/10/28 08:04:47;;;;;;;19.90;5.88;;;;;;;;;;5106952;28;20623;-77
2022/10/28 08:07:15;;;;;;;14.32;5.95;;;;;;;;;;5100538;28;20281;-77
2022/10/28 08:09:42;;;;;;;15.95;6.40;;;;;;;;;;5084844;28;20210;-76
2022/10/28 08:12:09;;;;;;;12.82;5.82;;;;;;;;;;5082946;28;20269;-76
2022/10/28 08:14:37;;;;;;;13.13;5.25;;;;;;;;;;5093719;28;20223;-77
2022/10/28 08:17:04;;;;;;;15.15;4.97;;;;;;;;;;5094534;28;20221;-76
2022/10/28 08:19:33;;;;;;;17.38;5.28;;;;;;;;;;5088499;28;20293;-77
2022/10/28 08:22:01;;;;;;;12.13;5.28;;;;;;;;;;5096195;28;20412;-76
2022/10/28 08:24:28;;;;;;;17.75;5.50;;;;;;;;;;5094472;28;20286;-76
2022/10/28 08:26:55;;;;;;;13.73;5.75;;;;;;;;;;5094509;28;20752;-77
2022/10/28 08:29:23;;;;;;;17.00;5.63;;;;;;;;;;5092393;28;20301;-76
2022/10/28 08:31:50;;;;;;;16.25;5.78;;;;;;;;;;5098890;28;20284;-76
2022/10/28 08:34:17;;;;;;;14.43;5.30;;;;;;;;;;5089446;28;20281;-76
2022/10/28 08:36:45;;;;;;;14.25;5.45;;;;;;;;;;5096026;28;20218;-76
2022/10/28 08:39:13;;;;;;;17.67;6.00;;;;;;;;;;5098603;28;20212;-76
2022/10/28 08:41:41;;;;;;;12.48;5.32;;;;;;;;;;5097203;28;20221;-76
2022/10/28 08:44:25;;;;;;;12.75;5.20;;;;;;;;;;5098178;28;20204;-76
2022/10/28 08:46:57;;;;;;;11.80;4.82;;;;;;;;;;5099294;28;20222;-76
2022/10/28 08:49:24;;;;;;;13.75;5.13;;;;;;;;;;5094253;28;20244;-76
2022/10/28 08:51:55;;;;;;;15.93;4.78;;;;;;;;;;5094325;28;20286;-76
2022/10/28 08:54:25;;;;;;;14.57;5.18;;;;;;;;;;5096897;28;20213;-77
2022/10/28 08:56:54;;;;;;;12.77;4.30;;;;;;;;;;5096273;28;20308;-77
2022/10/28 08:59:24;;;;;;;10.88;4.18;;;;;;;;;;5097361;28;20259;-77
2022/10/28 09:01:54;;;;;;;13.57;4.20;;;;;;;;;;5092310;28;20705;-76
2022/10/28 09:04:26;;;;;;;10.30;3.58;;;;;;;;;;5100393;28;20285;-76
2022/10/28 09:06:55;;;;;;;12.77;3.70;;;;;;;;;;5096357;28;20214;-77
2022/10/28 09:09:23;;;;;;;13.82;4.03;;;;;;;;;;5091559;28;20293;-77
2022/10/28 09:11:57;;;;;;;11.35;3.58;;;;;;;;;;5098916;28;20277;-76
2022/10/28 09:14:39;;;;;;;12.40;3.33;;;;;;;;;;5092885;28;20288;-76
2022/10/28 09:17:11;;;;;;;12.77;3.30;;;;;;;;;;5096400;28;20213;-76
2022/10/28 09:19:41;;;;;;;11.43;2.92;;;;;;;;;;5094263;28;20222;-76
2022/10/28 09:22:16;;;;;;;8.95;2.97;;;;;;;;;;5099376;28;20289;-76
2022/10/28 09:24:46;;;;;;;9.77;2.90;;;;;;;;;;5093300;28;20285;-77
2022/10/28 09:27:18;;;;;;;11.75;2.90;;;;;;;;;;5095856;28;20226;-77
2022/10/28 09:29:51;;;;;;;8.15;2.70;;;;;;;;;;5090902;28;20312;-77
2022/10/28 09:32:22;;;;;;;9.93;2.60;;;;;;;;;;5095158;28;20753;-77
2022/10/28 09:34:51;;;;;;;9.50;2.63;;;;;;;;;;5094548;28;20293;-77
2022/10/28 09:37:21;;;;;;;10.48;3.20;;;;;;;;;;5087696;28;20246;-77
2022/10/28 09:39:50;;;;;;;10.02;3.08;;;;;;;;;;5093268;28;20293;-76
2022/10/28 09:42:20;;;;;;;11.75;3.13;;;;;;;;;;5093309;28;20299;-76
2022/10/28 09:44:49;;;;;;;9.75;3.25;;;;;;;;;;5094412;28;20746;-77
2022/10/28 09:47:19;;;;;;;9.00;2.53;;;;;;;;;;5093156;28;20217;-77
2022/10/28 09:49:47;;;;;;;8.93;2.80;;;;;;;;;;5089860;28;20281;-76
2022/10/28 09:52:18;;;;;;;10.70;3.30;;;;;;;;;;5090290;28;20242;-77
2022/10/28 09:54:49;;;;;;;12.10;3.40;;;;;;;;;;5093727;28;20727;-77
2022/10/28 09:57:16;;;;;;;6.93;3.17;;;;;;;;;;5092808;28;20316;-77
2022/10/28 09:59:43;;;;;;;8.30;3.05;;;;;;;;;;5092704;28;20289;-77
2022/10/28 10:02:22;;;;;;;9.18;3.03;;;;;;;;;;5091977;28;20204;-77
2022/10/28 10:04:49;;;;;;;11.32;2.95;;;;;;;;;;5097156;28;20555;-77
2022/10/28 10:07:22;;;;;;;9.05;2.70;;;;;;;;;;5090359;28;20281;-77
2022/10/28 10:09:51;;;;;;;8.85;2.80;;;;;;;;;;5100879;28;20222;-77
2022/10/28 10:12:18;;;;;;;9.95;2.47;;;;;;;;;;5097630;28;20306;-77
2022/10/28 10:14:47;;;;;;;9.80;2.47;;;;;;;;;;5094848;28;20293;-77
2022/10/28 10:17:17;;;;;;;10.27;2.10;;;;;;;;;;5094140;28;20223;-76
2022/10/28 10:20:04;;;;;;;9.60;2.30;;;;;;;;;;5090038;28;20289;-76
2022/10/28 10:22:32;;;;;;;12.23;2.58;;;;;;;;;;5095219;28;20300;-78
2022/10/28 10:25:01;;;;;;;9.55;2.08;;;;;;;;;;5093568;28;20324;-77
2022/10/28 10:27:29;;;;;;;9.60;2.13;;;;;;;;;;5101539;28;20297;-76
2022/10/28 10:29:57;;;;;;;9.25;1.98;;;;;;;;;;5094534;28;20249;-76
2022/10/28 10:32:26;;;;;;;4.13;1.95;;;;;;;;;;5091718;28;20210;-77
2022/10/28 10:34:57;;;;;;;6.95;1.88;;;;;;;;;;5093604;28;20221;-76
2022/10/28 10:37:24;;;;;;;8.43;2.28;;;;;;;;;;5089253;28;20299;-76
2022/10/28 10:40:00;;;;;;;6.13;2.00;;;;;;;;;;5089630;28;20201;-76
2022/10/28 10:42:28;;;;;;;6.57;1.98;;;;;;;;;;5093307;28;20197;-76
2022/10/28 10:44:59;;;;;;;6.63;1.58;;;;;;;;;;5094579;28;20297;-76
2022/10/28 10:47:27;;;;;;;7.15;2.05;;;;;;;;;;5090324;28;20210;-76
2022/10/28 10:50:14;;;;;;;7.00;2.33;;;;;;;;;;5091366;28;20293;-75
2022/10/28 10:52:48;;;;;;;10.77;2.70;;;;;;;;;;5085818;28;20289;-76
2022/10/28 10:55:21;;;;;;;8.55;1.77;;;;;;;;;;5087329;28;20202;-75
2022/10/28 10:57:50;;;;;;;5.90;1.73;;;;;;;;;;5095566;28;20258;-76
2022/10/28 11:00:18;;;;;;;8.98;2.13;;;;;;;;;;5094647;28;20230;-75
2022/10/28 11:02:46;;;;;;;6.20;1.60;;;;;;;;;;5093997;28;20205;-76
2022/10/28 11:05:20;;;;;;;8.40;1.83;;;;;;;;;;5084799;28;20229;-75
2022/10/28 11:07:48;;;;;;;5.88;1.52;;;;;;;;;;5099862;28;20194;-75
2022/10/28 11:10:21;;;;;;;10.90;2.20;;;;;;;;;;5093161;28;20721;-75
2022/10/28 11:12:53;;;;;;;8.57;1.80;;;;;;;;;;5087118;28;20225;-76
2022/10/28 11:15:22;;;;;;;4.50;1.55;;;;;;;;;;5090613;28;20202;-76
2022/10/28 11:17:55;;;;;;;6.88;1.77;;;;;;;;;;5090418;28;20325;-76
2022/10/28 11:20:24;;;;;;;5.25;1.75;;;;;;;;;;5094090;28;20630;-76
2022/10/28 11:22:55;;;;;;;9.30;2.20;;;;;;;;;;5089829;28;20205;-76
2022/10/28 11:25:30;;;;;;;7.22;1.70;;;;;;;;;;5092068;28;20221;-75
2022/10/28 11:28:03;;;;;;;6.50;1.52;;;;;;;;;;5084529;28;20297;-76
2022/10/28 11:30:37;;;;;;;6.85;1.63;;;;;;;;;;5089223;28;20659;-76
2022/10/28 11:33:08;;;;;;;7.07;1.50;;;;;;;;;;5089683;28;20285;-75
2022/10/28 11:35:40;;;;;;;6.00;1.45;;;;;;;;;;5087256;28;20252;-76
2022/10/28 11:38:12;;;;;;;6.05;1.48;;;;;;;;;;5094603;28;20252;-76
2022/10/28 11:40:44;;;;;;;6.03;1.25;;;;;;;;;;5092137;28;20292;-76
2022/10/28 11:43:20;;;;;;;7.57;1.60;;;;;;;;;;5092003;28;20743;-76
2022/10/28 11:45:51;;;;;;;8.27;1.27;;;;;;;;;;5085299;28;20244;-75
2022/10/28 11:48:26;;;;;;;7.50;1.73;;;;;;;;;;5085904;28;20281;-76
2022/10/28 11:50:59;;;;;;;6.70;1.52;;;;;;;;;;5090089;28;20210;-76
2022/10/28 11:53:44;;;;;;;5.05;1.45;;;;;;;;;;5095135;28;20297;-76
2022/10/28 11:56:18;;;;;;;7.55;1.60;;;;;;;;;;5084803;28;20241;-76
2022/10/28 11:58:50;;;;;;;4.60;1.00;;;;;;;;;;5090901;28;20194;-76
2022/10/28 12:01:24;;;;;;;5.55;1.42;;;;;;;;;;5089603;28;20290;-76
2022/10/28 12:04:01;;;;;;;5.38;0.90;;;;;;;;;;5081178;28;20313;-76
2022/10/28 12:06:33;;;;;;;5.13;1.25;;;;;;;;;;5093274;28;20194;-76
2022/10/28 12:09:07;;;;;;;5.60;1.27;;;;;;;;;;5096422;28;20304;-77
2022/10/28 12:11:42;;;;;;;5.68;1.38;;;;;;;;;;5096613;28;20214;-76
2022/10/28 12:14:15;;;;;;;7.93;1.42;;;;;;;;;;5094524;28;20287;-76
2022/10/28 12:16:49;;;;;;;7.22;1.50;;;;;;;;;;5098277;28;20317;-78
2022/10/28 12:19:17;;;;;;;8.45;1.38;;;;;;;;;;5097111;28;20207;-77
2022/10/28 12:21:46;;;;;;;6.60;1.20;;;;;;;;;;5094375;28;20291;-76
2022/10/28 12:24:15;;;;;;;6.05;1.40;;;;;;;;;;5091445;28;20289;-77
2022/10/28 12:26:43;;;;;;;6.38;1.23;;;;;;;;;;5089047;28;20201;-77
2022/10/28 12:29:15;;;;;;;4.68;1.23;;;;;;;;;;5090212;28;20265;-77
2022/10/28 12:31:44;;;;;;;3.20;0.90;;;;;;;;;;5099329;28;20284;-77
2022/10/28 12:34:13;;;;;;;5.43;1.23;;;;;;;;;;5098700;28;20301;-77
2022/10/28 12:36:43;;;;;;;4.45;1.02;;;;;;;;;;5098132;28;20773;-77
2022/10/28 12:39:14;;;;;;;7.82;1.40;;;;;;;;;;5098566;28;20309;-77
2022/10/28 12:41:47;;;;;;;5.25;1.20;;;;;;;;;;5093153;28;20233;-77
2022/10/28 12:44:18;;;;;;;5.75;1.38;;;;;;;;;;5097870;28;20222;-77
2022/10/28 12:46:50;;;;;;;4.68;1.27;;;;;;;;;;5099169;28;20293;-77
2022/10/28 12:49:19;;;;;;;5.45;1.00;;;;;;;;;;5100127;28;20231;-77
2022/10/28 12:51:47;;;;;;;3.88;1.00;;;;;;;;;;5100045;28;20293;-77
2022/10/28 12:54:17;;;;;;;7.88;1.35;;;;;;;;;;5099921;28;20218;-77
2022/10/28 12:56:49;;;;;;;6.50;1.27;;;;;;;;;;5101368;28;20909;-77
2022/10/28 12:59:19;;;;;;;4.93;1.27;;;;;;;;;;5101259;28;20239;-78
2022/10/28 13:01:47;;;;;;;5.97;1.13;;;;;;;;;;5097277;28;20293;-78
2022/10/28 13:04:15;;;;;;;5.68;1.50;;;;;;;;;;5087805;28;20198;-77
2022/10/28 13:06:58;;;;;;;6.32;1.27;;;;;;;;;;5096456;28;20186;-77
2022/10/28 13:09:33;;;;;;;4.05;1.08;;;;;;;;;;5093727;28;20230;-77
2022/10/28 13:12:17;;;;;;;5.32;1.50;;;;;;;;;;5093572;28;20284;-77
2022/10/28 13:15:02;;;;;;;4.88;1.45;;;;;;;;;;5092674;28;20741;-77
2022/10/28 13:17:38;;;;;;;6.13;1.40;;;;;;;;;;5101298;28;20309;-77
2022/10/28 13:20:12;;;;;;;4.88;1.30;;;;;;;;;;5100789;28;20221;-77
2022/10/28 13:22:44;;;;;;;6.10;1.20;;;;;;;;;;5098862;28;20280;-77
2022/10/28 13:25:21;;;;;;;4.70;1.30;;;;;;;;;;5097793;28;20246;-78
2022/10/28 13:27:48;;;;;;;6.15;1.30;;;;;;;;;;5092123;28;20754;-76
2022/10/28 13:30:16;;;;;;;4.82;1.38;;;;;;;;;;5095927;28;20611;-77
2022/10/28 13:32:45;;;;;;;5.38;1.42;;;;;;;;;;5095247;28;20298;-77
2022/10/28 13:35:15;;;;;;;4.60;1.20;;;;;;;;;;5097951;28;20293;-76
2022/10/28 13:37:46;;;;;;;5.03;1.30;;;;;;;;;;5097570;28;20218;-77
2022/10/28 13:40:21;;;;;;;7.05;1.58;;;;;;;;;;5095985;28;20305;-76
2022/10/28 13:42:49;;;;;;;6.85;1.70;;;;;;;;;;5088125;28;20220;-77
2022/10/28 13:45:35;;;;;;;7.50;1.27;;;;;;;;;;5088133;28;20198;-77
2022/10/28 13:48:17;;;;;;;5.97;1.58;;;;;;;;;;5096685;28;20297;-76
2022/10/28 13:50:45;;;;;;;6.43;1.48;;;;;;;;;;5101242;28;20297;-76
2022/10/28 13:53:43;;;;;;;6.03;1.70;;;;;;;;;;5094710;28;20285;-77
2022/10/28 13:56:12;;;;;;;6.03;1.05;;;;;;;;;;5091737;28;20286;-77
2022/10/28 13:58:49;;;;;;;6.65;1.45;;;;;;;;;;5096806;28;20300;-77
2022/10/28 14:01:34;;;;;;;5.10;1.30;;;;;;;;;;5092931;28;20204;-77
2022/10/28 14:04:03;;;;;;;5.07;1.23;;;;;;;;;;5086362;28;20210;-78
2022/10/28 14:06:32;;;;;;;9.57;1.20;;;;;;;;;;5093666;28;20204;-77
2022/10/28 14:09:00;;;;;;;8.43;1.40;;;;;;;;;;5087491;28;20205;-77
2022/10/28 14:11:29;;;;;;;7.82;1.38;;;;;;;;;;5093251;28;21389;-77
2022/10/28 14:13:58;;;;;;;6.78;1.67;;;;;;;;;;5093326;28;20207;-77
2022/10/28 14:16:27;;;;;;;8.57;2.13;;;;;;;;;;5094370;28;20285;-77
2022/10/28 14:18:59;;;;;;;6.53;1.90;;;;;;;;;;5096281;28;20639;-77
2022/10/28 14:21:41;;;;;;;5.60;1.95;;;;;;;;;;5090506;28;20279;-77
2022/10/28 14:24:13;;;;;;;7.72;1.73;;;;;;;;;;5097112;28;20232;-75
2022/10/28 14:26:58;;;;;;;7.07;1.70;;;;;;;;;;5091765;28;20324;-76
2022/10/28 14:29:28;;;;;;;8.00;2.35;;;;;;;;;;5096234;28;20304;-76
2022/10/28 14:31:56;;;;;;;6.65;1.77;;;;;;;;;;5099842;28;20217;-75
2022/10/28 14:34:44;;;;;;;8.10;2.20;;;;;;;;;;5089874;28;20225;-76
2022/10/28 14:37:30;;;;;;;10.85;2.90;;;;;;;;;;5093171;28;20301;-76
2022/10/28 14:40:04;;;;;;;8.48;2.33;;;;;;;;;;5096240;28;20297;-76
2022/10/28 14:42:42;;;;;;;5.65;2.33;;;;;;;;;;5093382;28;20304;-76
2022/10/28 14:45:21;;;;;;;7.03;2.38;;;;;;;;;;5097561;28;20297;-75
2022/10/28 14:47:58;;;;;;;8.45;2.50;;;;;;;;;;5088391;28;20285;-75
2022/10/28 14:50:27;;;;;;;7.13;2.70;;;;;;;;;;5088745;28;20193;-76